Sprague, Washington
Current Conditions -  °F | °C
As of 4:58 AM on Wednesday 22 Oct 2014 (Local Time) from KSKA Reporting Station
Few Clouds Few Clouds  
Wind Chill: 39°   Ceiling: Unl
Heat Index: 44°   Visibility: 10mi
Dew Point: 38°   Wind: 8mph
Humidity: 79%   Direction: 130°SE
Pressure: 29.92"   Gusts: NA
Location:  47.3°N, 117.98°W
Report Text: KSKA 221158Z AUTO 13007KT 10SM FEW130 07/03 A2992 RMK AO2 SLP137 60000 T00650031 10069 20045 57015
Loading
Personal Weather Stations






























Interactive Weather Map
Tropical Storm Tracking
New forecast layout! Learn more

10-Day Weather Forecast

Advertisements
Track Severe Weather on mobile